< < Back
Terminal Aerodrome Forecast


Current Version              Previous Versions:   1  2  3  4  5  6  7  8  9  

Terminal Aerodrome Forecast

604
FTUS44 KMRX 011124
TAFTYS
TAF
KTYS 011124Z 0112/0212 VRB03KT 6SM BR FEW005 BKN250
      TEMPO 0112/0113 4SM BR
     FM011500 27005KT P6SM SKC
     FM020600 20003KT 5SM BR SKC=

Latest METAR

377
SAUS80 KWBC 021000 CCA
MTRTYS
METAR KTYS 020953Z 00000KT 9SM CLR 14/13 A3006 RMK AO2 SLP171 T01440128
$


USA.gov is the U.S. government's official web portal to all federal, state and local government web resources and services.